M I D A S
Marine Information and Data Acquisition System
Tripno 1522 of the Zeeleeuw from 2008-07-18 07:56:38 to 2008-07-18 15:00:26
Back to CruiseResearch ActivitiesStationsMapUnderway DataData graphs

EquipmentUnitsComment
TimeDGPSUTC
LatitudeDGPSDM.mWGS84
LongitudeDGPSDM.mWGS84
TemperatureSBE03/SBE38deg celciusITS90
ConductivitySBE21S/mITS90
SalinitySBE21 Practical Salinity Units
ChlorophylAChelsea fluorimeterg/lCalibrated in Aceton
Missing or incorrect values are displayed as -999
Sea surface data collected by the RV Zeeleeuw from 2008-07-18 08:00:17 to 2008-07-18 15:03:24
Time Latitude Longitude Temperature Conductivity Salinity ChlorophylA
2008-07-18 08:01:21 51°13.633 2°56.011 21.319 0.090164 0.495204 -1.627401
2008-07-18 08:02:22 51°13.644 2°55.958 21.323 0.090164 0.495256 -1.627401
2008-07-18 08:03:22 51°13.657 2°55.912 21.3294 0.090164 0.495248 -1.627401
2008-07-18 08:04:22 51°13.681 2°55.831 21.3355 0.090164 0.495274 -1.627401
2008-07-18 08:05:21 51°13.697 2°55.764 21.3411 0.090164 0.495291 -1.592577
2008-07-18 08:06:21 51°13.71 2°55.775 21.3485 0.090164 0.495327 -1.627401
2008-07-18 08:07:21 51°13.71 2°55.779 21.3539 0.090164 0.495309 -1.592577
2008-07-18 08:08:21 51°13.715 2°55.772 21.3643 0.090164 0.495335 -1.627401
2008-07-18 08:09:21 51°13.767 2°55.698 21.3758 0.090164 0.495327 -1.592577
2008-07-18 08:10:20 51°13.851 2°55.607 21.3831 0.090164 0.495353 -1.627401
2008-07-18 08:11:20 51°13.952 2°55.53 21.3915 0.090164 0.49537 -1.592577
2008-07-18 08:12:19 51°14.054 2°55.454 21.3976 0.090164 0.495388 -1.627401
2008-07-18 08:13:19 51°14.166 2°55.364 21.4069 0.090164 0.495388 -1.592577
2008-07-18 08:14:19 51°14.28 2°55.212 21.4088 0.090164 0.495388 -1.592577
2008-07-18 08:15:19 51°14.389 2°55.01 21.422 0.090164 0.495432 -1.592577
2008-07-18 08:16:17 51°14.513 2°54.822 21.4013 0.090164 0.495432 -1.592577
2008-07-18 08:17:17 51°14.691 2°54.746 21.4222 0.090164 0.495458 -1.627401
2008-07-18 08:18:17 51°14.881 2°54.678 21.4408 0.090164 0.495537 -1.592577
2008-07-18 08:19:17 51°15.072 2°54.621 21.4684 0.090164 0.49552 -1.627401
2008-07-18 08:20:17 51°15.263 2°54.579 21.4626 0.090164 0.495564 -1.627401
2008-07-18 08:21:17 51°15.455 2°54.526 21.4723 0.090164 0.49559 -1.592577
2008-07-18 08:22:17 51°15.645 2°54.466 21.4766 0.090164 0.495696 -1.592577
2008-07-18 08:23:17 51°15.838 2°54.419 21.5095 0.090164 0.495792 -1.592577
2008-07-18 08:24:17 51°16.023 2°54.328 18.949 0.164678 0.932987 -1.209513
2008-07-18 08:25:17 51°16.181 2°54.149 18.1374 4.557291 34.177443 5.163289
2008-07-18 08:26:17 51°16.326 2°53.979 18.0706 4.562592 34.515711 4.780225
2008-07-18 08:27:17 51°16.472 2°53.816 18.0115 4.561243 34.572526 5.198113
2008-07-18 08:28:17 51°16.617 2°53.656 18.0118 4.559167 34.590455 4.815049
2008-07-18 08:29:17 51°16.763 2°53.499 18.0239 4.560206 34.599282 4.57128
2008-07-18 08:30:17 51°16.912 2°53.352 18.0356 4.560621 34.597438 4.710577
2008-07-18 08:31:17 51°17.067 2°53.246 17.9974 4.560206 34.596595 4.466808
2008-07-18 08:32:17 51°17.228 2°53.212 17.9516 4.560206 34.625512 3.839975
2008-07-18 08:33:17 51°17.37 2°53.33 17.8945 4.466037 33.865916 3.352439
2008-07-18 08:34:17 51°17.5 2°53.486 17.8597 4.55595 34.67695 3.213142
2008-07-18 08:35:17 51°17.634 2°53.636 17.8438 4.553459 34.680043 3.10867
2008-07-18 08:36:17 51°17.77 2°53.781 17.8278 4.549825 34.663914 3.10867
2008-07-18 08:37:17 51°17.908 2°53.921 17.8241 4.550863 34.681581 3.178318
2008-07-18 08:38:17 51°18.047 2°54.06 17.8211 4.55024 34.68168 3.213142
2008-07-18 08:39:17 51°18.152 2°54.172 17.8181 4.550033 34.681262 3.247966
2008-07-18 08:40:17 51°18.189 2°54.242 17.8173 4.549617 34.680425 3.317614
2008-07-18 08:41:17 51°18.198 2°54.282 17.8202 4.54941 34.679329 3.28279
2008-07-18 08:42:17 51°18.196 2°54.291 17.825 4.549514 34.678183 3.213142
2008-07-18 08:43:17 51°18.194 2°54.293 17.8247 4.549721 34.678601 3.213142
2008-07-18 08:44:17 51°18.195 2°54.293 17.8274 4.54671 34.650856 3.178318
2008-07-18 08:45:17 51°18.198 2°54.289 17.8287 4.549929 34.676988 3.213142
2008-07-18 08:46:17 51°18.206 2°54.276 17.8312 4.550033 34.67652 3.247966
2008-07-18 08:47:17 51°18.214 2°54.255 17.8323 4.550033 34.675843 3.28279
2008-07-18 08:48:17 51°18.223 2°54.23 17.8321 4.550136 34.675375 3.317614
2008-07-18 08:49:17 51°18.233 2°54.2 17.8319 4.55024 34.675584 3.387263
2008-07-18 08:50:17 51°18.243 2°54.17 17.8344 4.550136 34.676052 3.387263
2008-07-18 08:51:17 51°18.256 2°54.136 17.8311 4.550033 34.675843 3.387263
2008-07-18 08:52:17 51°18.275 2°54.101 17.8261 4.549825 34.676779 3.387263
2008-07-18 08:53:17 51°18.298 2°54.066 17.8243 4.549617 34.677037 3.456911
2008-07-18 08:54:17 51°18.322 2°54.03 17.8226 4.549514 34.677505 3.456911
2008-07-18 08:55:17 51°18.345 2°53.989 17.8212 4.549306 34.678442 3.561383
2008-07-18 08:56:17 51°18.372 2°53.958 17.8205 4.549202 34.677555 3.561383
2008-07-18 08:57:17 51°18.4 2°53.931 17.8208 4.549202 34.67891 3.561383
2008-07-18 08:58:17 51°18.429 2°53.903 17.8178 4.549098 34.678701 3.631031
2008-07-18 08:59:17 51°18.459 2°53.875 17.8139 4.547333 34.665656 3.596207
2008-07-18 09:00:17 51°18.486 2°53.847 17.8119 4.547956 34.674365 3.561383
2008-07-18 09:01:17 51°18.515 2°53.819 17.8074 4.547437 34.671285 3.561383
2008-07-18 09:02:17 51°18.544 2°53.792 17.8059 4.546814 34.668674 3.422087
2008-07-18 09:03:17 51°18.574 2°53.765 17.8044 4.546606 34.668932 3.247966
2008-07-18 09:04:17 51°18.603 2°53.739 17.8058 4.54723 34.674933 3.178318
2008-07-18 09:05:17 51°18.637 2°53.76 17.8023 4.546918 34.671594 3.004198
2008-07-18 09:06:17 51°18.638 2°53.786 17.8024 4.546191 34.668095 3.10867
2008-07-18 09:07:17 51°18.63 2°53.789 17.8037 4.546087 34.665852 3.10867
2008-07-18 09:08:20 51°18.617 2°53.766 17.8009 4.545776 34.663868 3.178318
2008-07-18 09:09:20 51°18.61 2°53.764 17.8022 4.545361 34.660998 3.213142
2008-07-18 09:10:19 51°18.608 2°53.78 17.8017 4.545568 34.660739 3.178318
2008-07-18 09:11:18 51°18.61 2°53.795 17.8036 4.545257 34.660788 3.073846
2008-07-18 09:12:17 51°18.612 2°53.804 17.8107 4.54536 34.656255 3.073846
2008-07-18 09:13:17 51°18.611 2°53.808 17.8154 4.54536 34.652192 3.039022
2008-07-18 09:14:17 51°18.607 2°53.808 17.8153 4.54536 34.648806 3.073846
2008-07-18 09:15:17 51°18.603 2°53.808 17.8213 4.545257 34.647919 3.039022
2008-07-18 09:16:17 51°18.6 2°53.807 17.8295 4.545672 34.644697 2.899726
2008-07-18 09:17:17 51°18.601 2°53.802 17.8308 4.545672 34.641314 2.795254
2008-07-18 09:18:17 51°18.601 2°53.799 17.8404 4.545672 34.638607 2.76043
2008-07-18 09:19:17 51°18.601 2°53.796 17.8505 4.543595 34.610064 2.655957
2008-07-18 09:20:17 51°18.601 2°53.796 17.8559 4.546813 34.63145 2.655957
2008-07-18 09:21:17 51°18.601 2°53.795 17.8586 4.546398 34.624526 2.690782
2008-07-18 09:22:17 51°18.601 2°53.795 17.8602 4.546606 34.624271 2.655957
2008-07-18 09:23:17 51°18.601 2°53.793 17.8647 4.546502 34.620007 2.725606
2008-07-18 09:24:17 51°18.601 2°53.793 17.8683 4.546502 34.615954 2.690782
2008-07-18 09:25:17 51°18.602 2°53.791 17.8716 4.54619 34.611271 2.655957
2008-07-18 09:26:17 51°18.603 2°53.789 17.875 4.545983 34.607474 2.655957
2008-07-18 09:27:17 51°18.603 2°53.79 17.8754 4.545671 34.602792 2.690782
2008-07-18 09:28:17 51°18.603 2°53.79 17.8764 4.545567 34.600557 2.690782
2008-07-18 09:29:17 51°18.602 2°53.792 17.8774 4.545152 34.59634 2.690782
2008-07-18 09:30:17 51°18.601 2°53.794 17.8784 4.545048 34.594105 2.725606
2008-07-18 09:31:17 51°18.6 2°53.798 17.8761 4.544736 34.591449 2.690782
2008-07-18 09:32:17 51°18.6 2°53.802 17.877 4.544113 34.587486 2.655957
2008-07-18 09:33:17 51°18.601 2°53.804 17.8798 4.543594 34.582384 2.655957
2008-07-18 09:34:17 51°18.601 2°53.808 17.884 4.543802 34.579434 2.655957
2008-07-18 09:35:17 51°18.602 2°53.81 17.8837 4.54349 34.575429 2.655957
2008-07-18 09:36:17 51°18.603 2°53.812 17.8837 4.543075 34.572563 2.621133
2008-07-18 09:37:17 51°18.604 2°53.815 17.8849 4.54266 34.569022 2.586309
2008-07-18 09:38:17 51°18.605 2°53.819 17.888 4.54266 34.566999 2.655957
2008-07-18 09:39:17 51°18.606 2°53.82 17.8887 4.54266 34.56363 2.621133
2008-07-18 09:40:17 51°18.607 2°53.822 17.8898 4.542348 34.561648 2.655957
2008-07-18 09:41:17 51°18.61 2°53.826 17.8906 4.541829 34.557897 2.655957
2008-07-18 09:42:17 51°18.612 2°53.827 17.8917 4.541829 34.554528 2.655957
2008-07-18 09:43:17 51°18.613 2°53.83 17.8935 4.541621 34.552084 2.655957
2008-07-18 09:44:17 51°18.615 2°53.831 17.8932 4.540583 34.542561 2.725606
2008-07-18 09:45:17 51°18.617 2°53.832 17.8931 4.540168 34.539022 2.725606
2008-07-18 09:46:17 51°18.618 2°53.835 17.894 4.540583 34.543235 2.76043
2008-07-18 09:47:17 51°18.619 2°53.836 17.896 4.540375 34.538772 2.76043
2008-07-18 09:48:17 51°18.62 2°53.841 17.8928 4.540064 34.536117 2.76043
2008-07-18 09:49:17 51°18.62 2°53.846 17.8963 4.539545 34.533039 2.725606
2008-07-18 09:50:17 51°18.62 2°53.849 17.894 4.539233 34.531058 2.795254
2008-07-18 09:51:17 51°18.623 2°53.851 17.8975 4.539025 34.527942 2.795254
2008-07-18 09:52:17 51°18.626 2°53.853 17.9014 4.537156 34.509325 2.830078
2008-07-18 09:53:17 51°18.628 2°53.854 17.9052 4.539129 34.521424 2.830078
2008-07-18 09:54:17 51°18.63 2°53.856 17.9064 4.539025 34.519194 2.795254
2008-07-18 09:55:17 51°18.632 2°53.86 17.9078 4.538818 34.516753 2.830078
2008-07-18 09:56:17 51°18.634 2°53.86 17.9103 4.538818 34.515407 2.830078
2008-07-18 09:57:17 51°18.636 2°53.861 17.9112 4.53861 34.512293 2.830078
2008-07-18 09:58:17 51°18.639 2°53.86 17.9135 4.538506 34.508719 2.864902
2008-07-18 09:59:17 51°18.641 2°53.861 17.9161 4.538506 34.50603 2.864902
2008-07-18 10:00:17 51°18.643 2°53.86 17.9183 4.538506 34.504686 2.899726
2008-07-18 10:01:17 51°18.646 2°53.86 17.9182 4.538298 34.502917 2.93455
2008-07-18 10:02:17 51°18.649 2°53.867 17.9179 4.538194 34.501361 2.899726
2008-07-18 10:03:17 51°18.649 2°53.88 17.9195 4.538091 34.499132 2.93455
2008-07-18 10:04:17 51°18.648 2°53.885 17.919 4.537675 34.495595 3.004198
2008-07-18 10:05:17 51°18.649 2°53.884 17.9203 4.537571 34.494039 3.039022
2008-07-18 10:06:17 51°18.651 2°53.883 17.9217 4.537364 34.491599 2.969374
2008-07-18 10:07:17 51°18.653 2°53.882 17.9242 4.537468 34.489796 3.004198
2008-07-18 10:08:17 51°18.655 2°53.881 17.9283 4.537467 34.487781 3.039022
2008-07-18 10:09:17 51°18.654 2°53.883 17.9302 4.537675 34.485519 3.004198
2008-07-18 10:10:17 51°18.654 2°53.883 17.9316 4.537571 34.483964 3.039022
2008-07-18 10:11:17 51°18.652 2°53.885 17.9351 4.537364 34.481524 3.073846
2008-07-18 10:12:17 51°18.651 2°53.884 17.9343 4.53726 34.479969 3.178318
2008-07-18 10:13:17 51°18.651 2°53.884 17.9347 4.53726 34.478627 3.178318
2008-07-18 10:14:17 51°18.651 2°53.885 17.9375 4.537467 34.479052 3.178318
2008-07-18 10:15:17 51°18.651 2°53.885 17.9413 4.537363 34.476825 3.213142
2008-07-18 10:16:17 51°18.651 2°53.886 17.9431 4.537467 34.475024 3.247966
2008-07-18 10:17:17 51°18.65 2°53.886 17.9428 4.537052 34.469477 3.247966
2008-07-18 10:18:17 51°18.648 2°53.887 17.9443 4.537571 34.473895 3.213142
2008-07-18 10:19:17 51°18.647 2°53.886 17.9472 4.537571 34.471882 3.213142
2008-07-18 10:20:17 51°18.648 2°53.886 17.9471 4.537675 34.471424 3.247966
2008-07-18 10:21:17 51°18.65 2°53.885 17.9487 4.537571 34.469869 3.317614
2008-07-18 10:22:17 51°18.651 2°53.886 17.9534 4.537675 34.46807 3.317614
2008-07-18 10:23:17 51°18.652 2°53.884 17.9565 4.537882 34.466483 3.28279
2008-07-18 10:24:17 51°18.652 2°53.885 17.9583 4.537986 34.466025 3.317614
2008-07-18 10:25:17 51°18.652 2°53.886 17.96 4.53809 34.463556 3.28279
2008-07-18 10:26:17 51°18.652 2°53.884 17.9592 4.537986 34.462672 3.317614
2008-07-18 10:27:17 51°18.652 2°53.885 17.9626 4.537882 34.461119 3.317614
2008-07-18 10:28:17 51°18.652 2°53.884 17.9644 4.537882 34.459107 3.387263
2008-07-18 10:29:17 51°18.652 2°53.885 17.9643 4.537778 34.458224 3.352439
2008-07-18 10:30:17 51°18.651 2°53.886 17.9648 4.537675 34.456 3.352439
2008-07-18 10:31:17 51°18.65 2°53.885 17.9646 4.537675 34.456 3.422087
2008-07-18 10:32:17 51°18.65 2°53.886 17.9646 4.537467 34.454904 3.491735
2008-07-18 10:33:17 51°18.649 2°53.886 17.964 4.537467 34.453564 3.491735
2008-07-18 10:34:17 51°18.649 2°53.887 17.9649 4.537467 34.452224 3.561383
2008-07-18 10:35:17 51°18.65 2°53.887 17.9628 4.537052 34.450031 3.526559
2008-07-18 10:36:17 51°18.649 2°53.886 17.965 4.536844 34.448935 3.631031
2008-07-18 10:37:17 51°18.648 2°53.887 17.966 4.536636 34.447169 3.631031
2008-07-18 10:38:17 51°18.647 2°53.888 17.9669 4.536532 34.444276 3.665855
2008-07-18 10:39:17 51°18.646 2°53.888 17.97 4.536117 34.438734 3.770327
2008-07-18 10:40:17 51°18.645 2°53.888 17.9724 4.535806 34.434745 3.805151
2008-07-18 10:41:17 51°18.647 2°53.886 17.9746 4.53539 34.429874 3.839975
2008-07-18 10:42:17 51°18.649 2°53.887 17.975 4.535182 34.42543 3.874799
2008-07-18 10:43:17 51°18.649 2°53.888 17.9774 4.534767 34.421899 3.909623
2008-07-18 10:44:17 51°18.647 2°53.887 17.9807 4.534248 34.415477 3.839975
2008-07-18 10:45:17 51°18.645 2°53.888 17.9805 4.533729 34.409056 3.839975
2008-07-18 10:46:17 51°18.645 2°53.888 17.9807 4.533729 34.407049 3.909623
2008-07-18 10:47:17 51°18.647 2°53.887 17.9813 4.533417 34.40507 3.874799
2008-07-18 10:48:17 51°18.648 2°53.888 17.9842 4.53321 34.403305 3.909623
2008-07-18 10:49:17 51°18.649 2°53.888 17.9919 4.53321 34.399961 3.909623
2008-07-18 10:50:17 51°18.648 2°53.888 17.9947 4.533106 34.395067 3.874799
2008-07-18 10:51:17 51°18.644 2°53.888 17.9963 4.532898 34.390628 3.874799
2008-07-18 10:52:17 51°18.643 2°53.888 17.9947 4.53269 34.388195 3.944447
2008-07-18 10:53:17 51°18.646 2°53.887 18 4.532898 34.387286 3.909623
2008-07-18 10:54:17 51°18.651 2°53.886 18.0037 4.533105 34.386378 3.909623
2008-07-18 10:55:17 51°18.651 2°53.886 18.009 4.532794 34.380391 3.944447
2008-07-18 10:56:17 51°18.649 2°53.888 18.0085 4.532586 34.377291 4.014096
2008-07-18 10:57:17 51°18.645 2°53.888 18.0139 4.532275 34.370639 4.014096
2008-07-18 10:58:17 51°18.647 2°53.888 18.0168 4.531963 34.366658 4.04892
2008-07-18 10:59:17 51°18.648 2°53.887 18.0193 4.532067 34.36487 4.014096
2008-07-18 11:00:17 51°18.649 2°53.887 18.0245 4.531755 34.357553 3.944447
2008-07-18 11:01:17 51°18.648 2°53.888 18.0274 4.53134 34.350024 3.944447
2008-07-18 11:02:17 51°18.647 2°53.886 18.0309 4.531028 34.346046 3.979271
2008-07-18 11:03:17 51°18.647 2°53.888 18.0341 4.531028 34.342712 3.944447
2008-07-18 11:04:17 51°18.649 2°53.888 18.038 4.531028 34.340045 3.909623
2008-07-18 11:05:17 51°18.651 2°53.886 18.0403 4.530924 34.336498 3.839975
2008-07-18 11:06:17 51°18.65 2°53.888 18.0464 4.530613 34.331189 3.839975
2008-07-18 11:07:17 51°18.646 2°53.888 18.0514 4.530509 34.326311 3.874799
2008-07-18 11:08:17 51°18.644 2°53.889 18.054 4.530197 34.319006 3.839975
2008-07-18 11:09:17 51°18.648 2°53.887 18.0567 4.529782 34.312819 3.839975
2008-07-18 11:10:17 51°18.653 2°53.886 18.0599 4.529574 34.308395 3.839975
2008-07-18 11:11:17 51°18.652 2°53.886 18.0652 4.529367 34.304637 3.839975
2008-07-18 11:12:17 51°18.649 2°53.887 18.0677 4.528847 34.295577 3.874799
2008-07-18 11:13:17 51°18.648 2°53.889 18.0717 4.528328 34.288514 3.874799
2008-07-18 11:14:17 51°18.649 2°53.886 18.0751 4.528017 34.283213 3.805151
2008-07-18 11:15:17 51°18.651 2°53.886 18.0769 4.525733 34.261851 3.805151
2008-07-18 11:16:17 51°18.651 2°53.886 18.0826 4.525629 34.256985 3.770327
2008-07-18 11:17:17 51°18.65 2°53.889 18.0813 4.527186 34.268861 3.839975
2008-07-18 11:18:17 51°18.647 2°53.889 18.0881 4.526978 34.266436 3.805151
2008-07-18 11:19:17 51°18.649 2°53.888 18.0875 4.526874 34.260907 3.700679
2008-07-18 11:20:17 51°18.654 2°53.885 18.0931 4.526771 34.258035 3.735503
2008-07-18 11:21:17 51°18.655 2°53.885 18.0957 4.526874 34.255596 3.735503
2008-07-18 11:22:17 51°18.651 2°53.886 18.0995 4.526874 34.252941 3.770327
2008-07-18 11:23:17 51°18.651 2°53.888 18.1008 4.526978 34.252494 3.700679
2008-07-18 11:24:17 51°18.655 2°53.884 18.1053 4.527082 34.250719 3.700679
2008-07-18 11:25:17 51°18.657 2°53.884 18.1089 4.527186 34.248945 3.735503
2008-07-18 11:26:17 51°18.653 2°53.887 18.1129 4.527601 34.248484 3.700679
2008-07-18 11:27:17 51°18.651 2°53.888 18.1097 4.527601 34.246494 3.874799
2008-07-18 11:28:17 51°18.652 2°53.886 18.1125 4.527497 34.248267 3.874799
2008-07-18 11:29:17 51°18.656 2°53.884 18.1118 4.52812 34.252882 3.839975
2008-07-18 11:30:17 51°18.656 2°53.884 18.1106 4.528535 34.256401 3.874799
2008-07-18 11:31:17 51°18.651 2°53.888 18.114 4.527912 34.250459 3.805151
2008-07-18 11:32:17 51°18.647 2°53.889 18.1142 4.527912 34.247806 3.839975
2008-07-18 11:33:17 51°18.649 2°53.887 18.1163 4.528639 34.2533 3.944447
2008-07-18 11:34:18 51°18.655 2°53.884 18.1195 4.528431 34.250877 4.014096
2008-07-18 11:35:17 51°18.657 2°53.883 18.1204 4.529677 34.259442 3.979271
2008-07-18 11:36:18 51°18.654 2°53.886 18.12 4.531027 34.268885 3.909623
2008-07-18 11:37:17 51°18.651 2°53.887 18.1199 4.531131 34.270428 3.944447
2008-07-18 11:38:18 51°18.653 2°53.887 18.1261 4.531442 34.272403 4.083744
2008-07-18 11:39:17 51°18.656 2°53.884 18.1217 4.531858 34.274594 4.083744
2008-07-18 11:40:17 51°18.655 2°53.886 18.1238 4.53165 34.270845 4.083744
2008-07-18 11:41:17 51°18.649 2°53.888 18.1219 4.532377 34.278992 4.118568
2008-07-18 11:42:17 51°18.649 2°53.888 18.1242 4.532481 34.279208 4.083744
2008-07-18 11:43:18 51°18.654 2°53.885 18.1267 4.532585 34.279424 4.083744
2008-07-18 11:44:17 51°18.657 2°53.883 18.1248 4.533415 34.283805 4.083744
2008-07-18 11:45:18 51°18.655 2°53.886 18.131 4.534038 34.289082 4.04892
2008-07-18 11:46:17 51°18.65 2°53.888 18.1272 4.534142 34.289961 4.04892
2008-07-18 11:47:17 51°18.65 2°53.888 18.1266 4.534453 34.2926 4.04892
2008-07-18 11:48:17 51°18.654 2°53.885 18.1251 4.534973 34.297661 4.014096
2008-07-18 11:49:17 51°18.656 2°53.885 18.1286 4.535596 34.302939 4.04892
2008-07-18 11:50:17 51°18.653 2°53.887 18.1268 4.536115 34.306672 3.979271
2008-07-18 11:51:17 51°18.652 2°53.887 18.1276 4.536322 34.308431 3.944447
2008-07-18 11:52:17 51°18.655 2°53.885 18.1299 4.536738 34.309957 3.944447
2008-07-18 11:53:17 51°18.659 2°53.883 18.1308 4.537257 34.313691 3.944447
2008-07-18 11:54:17 51°18.657 2°53.885 18.1385 4.537984 34.318519 3.979271
2008-07-18 11:55:17 51°18.652 2°53.887 18.1498 4.537257 34.304394 4.153392
2008-07-18 11:56:17 51°18.651 2°53.887 18.1565 4.536426 34.288734 4.22304
2008-07-18 11:57:17 51°18.654 2°53.885 18.1596 4.536945 34.288486 4.327512
2008-07-18 11:58:17 51°18.657 2°53.882 18.1658 4.537879 34.292417 4.39716
2008-07-18 11:59:17 51°18.657 2°53.884 18.1664 4.53871 34.295469 4.22304
2008-07-18 12:00:17 51°18.653 2°53.886 18.1676 4.539333 34.300078 4.22304
2008-07-18 12:01:17 51°18.655 2°53.885 18.1572 4.540683 34.314157 4.22304
2008-07-18 12:02:17 51°18.658 2°53.882 18.1453 4.542656 34.338162 4.04892
2008-07-18 12:03:17 51°18.656 2°53.884 18.1309 4.544629 34.366833 3.909623
2008-07-18 12:04:17 51°18.653 2°53.886 18.119 4.546083 34.389796 3.770327
2008-07-18 12:05:17 51°18.652 2°53.886 18.1161 4.547017 34.404376 3.665855
2008-07-18 12:06:17 51°18.656 2°53.884 18.1113 4.547848 34.415415 3.700679
2008-07-18 12:07:17 51°18.661 2°53.881 18.0997 4.549198 34.432193 3.596207
2008-07-18 12:08:17 51°18.658 2°53.883 18.0924 4.550652 34.453196 3.491735
2008-07-18 12:09:17 51°18.655 2°53.884 18.0803 4.551794 34.469563 3.422087
2008-07-18 12:10:17 51°18.655 2°53.885 18.0671 4.55304 34.49083 3.317614
2008-07-18 12:11:17 51°18.657 2°53.883 18.0546 4.554079 34.510349 3.28279
2008-07-18 12:12:17 51°18.657 2°53.883 18.0387 4.555325 34.531645 3.10867
2008-07-18 12:13:17 51°18.658 2°53.884 18.0294 4.55626 34.552991 3.039022
2008-07-18 12:14:17 51°18.658 2°53.884 18.0177 4.556779 34.566126 3.039022
2008-07-18 12:15:17 51°18.657 2°53.885 18.0105 4.557194 34.579057 2.969374
2008-07-18 12:16:17 51°18.659 2°53.883 18.0052 4.557195 34.583088 3.004198
2008-07-18 12:17:17 51°18.657 2°53.883 18.001 4.55761 34.589308 2.969374
2008-07-18 12:18:17 51°18.658 2°53.884 17.9982 4.558025 34.596201 2.93455
2008-07-18 12:19:17 51°18.659 2°53.883 18.0023 4.558025 34.600235 2.864902
2008-07-18 12:20:17 51°18.659 2°53.883 17.9946 4.558545 34.604651 2.864902
2008-07-18 12:21:17 51°18.658 2°53.885 17.9896 4.558648 34.610242 2.864902
2008-07-18 12:22:17 51°18.656 2°53.885 17.9913 4.55896 34.613565 2.899726
2008-07-18 12:23:17 51°18.654 2°53.885 17.9847 4.559271 34.615542 2.864902
2008-07-18 12:24:18 51°18.656 2°53.884 17.9836 4.559479 34.62202 2.864902
2008-07-18 12:25:17 51°18.658 2°53.884 17.9798 4.559791 34.628036 2.830078
2008-07-18 12:26:18 51°18.658 2°53.883 17.9763 4.560102 34.632707 2.830078
2008-07-18 12:27:17 51°18.657 2°53.884 17.9751 4.560206 34.635611 2.795254
2008-07-18 12:28:18 51°18.655 2°53.884 17.9744 4.560414 34.635358 2.76043
2008-07-18 12:29:17 51°18.656 2°53.884 17.9704 4.560725 34.644072 2.725606
2008-07-18 12:30:18 51°18.658 2°53.884 17.9675 4.560933 34.646514 2.690782
2008-07-18 12:31:18 51°18.658 2°53.882 17.9651 4.561141 34.652325 2.690782
2008-07-18 12:32:17 51°18.658 2°53.883 17.9647 4.561349 34.655441 2.655957
2008-07-18 12:33:18 51°18.657 2°53.884 17.9655 4.56166 34.656745 2.621133
2008-07-18 12:34:17 51°18.655 2°53.885 17.964 4.56166 34.660116 2.621133
2008-07-18 12:35:18 51°18.656 2°53.885 17.9628 4.561972 34.662768 2.621133
2008-07-18 12:36:17 51°18.657 2°53.884 17.9609 4.562075 34.662978 2.551485
2008-07-18 12:37:18 51°18.657 2°53.882 17.9613 4.562283 34.664746 2.516661
2008-07-18 12:38:18 51°18.658 2°53.883 17.9591 4.562387 34.668328 2.516661
2008-07-18 12:39:17 51°18.659 2°53.883 17.9604 4.562491 34.670561 2.516661
2008-07-18 12:40:18 51°18.659 2°53.883 17.9618 4.562595 34.671445 2.516661
2008-07-18 12:41:17 51°18.658 2°53.882 17.9583 4.56301 34.674307 2.516661
2008-07-18 12:42:17 51°18.658 2°53.882 17.9589 4.563114 34.676541 2.481837
2008-07-18 12:43:17 51°18.66 2°53.883 17.9585 4.563425 34.679868 2.447013
2008-07-18 12:44:17 51°18.66 2°53.883 17.9572 4.563633 34.681637 2.447013
2008-07-18 12:45:17 51°18.659 2°53.883 17.9527 4.563737 34.683871 2.377365
2008-07-18 12:46:17 51°18.657 2°53.884 17.9496 4.563737 34.683196 2.412189
2008-07-18 12:47:17 51°18.658 2°53.884 17.9534 4.563737 34.687246 2.377365
2008-07-18 12:48:17 51°18.659 2°53.883 17.9424 4.563945 34.69104 2.342541
2008-07-18 12:49:17 51°18.662 2°53.879 17.9405 4.563737 34.693998 2.307717
2008-07-18 12:50:17 51°18.661 2°53.88 17.9383 4.563737 34.6967 2.307717
2008-07-18 12:51:17 51°18.659 2°53.884 17.9375 4.563841 34.698935 2.272893
2008-07-18 12:52:17 51°18.657 2°53.885 17.9336 4.563737 34.700077 2.238069
2008-07-18 12:53:17 51°18.657 2°53.884 17.9328 4.56353 34.701011 2.203245
2008-07-18 12:54:17 51°18.659 2°53.883 17.9303 4.563426 34.701477 2.168421
2008-07-18 12:55:17 51°18.658 2°53.883 17.9269 4.563218 34.700383 2.133597
2008-07-18 12:56:17 51°18.658 2°53.884 17.9215 4.562907 34.700432 2.133597
2008-07-18 12:57:17 51°18.657 2°53.885 17.9209 4.562699 34.702041 2.133597
2008-07-18 12:58:17 51°18.657 2°53.885 17.915 4.561038 34.690585 2.168421
2008-07-18 12:59:17 51°18.658 2°53.885 17.9149 4.562388 34.703442 2.133597
2008-07-18 13:00:17 51°18.66 2°53.883 17.9109 4.56218 34.704376 2.133597
2008-07-18 13:01:17 51°18.661 2°53.883 17.9121 4.561972 34.703958 2.168421
2008-07-18 13:02:17 51°18.66 2°53.882 17.9038 4.561661 34.70536 2.133597
2008-07-18 13:03:18 51°18.659 2°53.883 17.9021 4.561349 34.706086 2.133597
2008-07-18 13:04:17 51°18.658 2°53.885 17.8989 4.560934 34.703221 2.168421
2008-07-18 13:05:18 51°18.658 2°53.886 17.8973 4.560623 34.705299 2.168421
2008-07-18 13:06:17 51°18.658 2°53.882 17.8948 4.560415 34.704881 2.168421
2008-07-18 13:07:18 51°18.659 2°53.884 17.8941 4.560311 34.706025 2.168421
2008-07-18 13:08:17 51°18.658 2°53.885 17.8917 4.560519 34.70712 2.168421
2008-07-18 13:09:17 51°18.658 2°53.887 17.8909 4.560311 34.708732 2.168421
2008-07-18 13:10:17 51°18.657 2°53.886 17.8857 4.560311 34.708732 2.133597
2008-07-18 13:11:17 51°18.659 2°53.885 17.8831 4.560104 34.710344 2.168421
2008-07-18 13:12:18 51°18.66 2°53.882 17.8824 4.559585 34.708623 2.168421
2008-07-18 13:13:17 51°18.66 2°53.883 17.8807 4.556262 34.680283 2.133597
2008-07-18 13:14:18 51°18.659 2°53.885 17.8836 4.559585 34.709977 2.133597
2008-07-18 13:15:17 51°18.656 2°53.886 17.8811 4.559585 34.708623 2.098773
2008-07-18 13:16:18 51°18.657 2°53.887 17.8755 4.559481 34.711122 2.133597
2008-07-18 13:17:17 51°18.657 2°53.886 17.8744 4.559377 34.712944 2.063949
2008-07-18 13:18:18 51°18.658 2°53.884 17.8694 4.559273 34.714089 2.063949
2008-07-18 13:19:17 51°18.658 2°53.884 17.8652 4.559273 34.716121 2.063949
2008-07-18 13:20:18 51°18.657 2°53.885 17.865 4.559066 34.718412 2.063949
2008-07-18 13:21:18 51°18.655 2°53.887 17.8645 4.558962 34.718881 2.029124
2008-07-18 13:22:17 51°18.653 2°53.888 17.8597 4.558858 34.720704 2.029124
2008-07-18 13:23:18 51°18.655 2°53.886 17.8612 4.55865 34.721642 1.9943
2008-07-18 13:24:17 51°18.657 2°53.887 17.8539 4.55865 34.722997 1.9943
2008-07-18 13:25:18 51°18.657 2°53.886 17.8505 4.558443 34.72529 1.924652
2008-07-18 13:26:17 51°18.657 2°53.886 17.8446 4.558443 34.72868 1.889828
2008-07-18 13:27:18 51°18.657 2°53.885 17.8424 4.558339 34.731183 1.855004
2008-07-18 13:28:18 51°18.66 2°53.884 17.8373 4.558235 34.733687 1.785356
2008-07-18 13:29:18 51°18.66 2°53.884 17.8338 4.558235 34.735721 1.750532
2008-07-18 13:30:18 51°18.659 2°53.885 17.8376 4.557924 34.737809 1.715708
2008-07-18 13:31:17 51°18.659 2°53.883 17.8281 4.557924 34.738488 1.680884
2008-07-18 13:32:18 51°18.661 2°53.883 17.8274 4.557716 34.740106 1.680884
2008-07-18 13:33:17 51°18.66 2°53.883 17.8235 4.557716 34.739428 1.680884
2008-07-18 13:34:17 51°18.661 2°53.883 17.8204 4.557405 34.741517 1.64606
2008-07-18 13:35:17 51°18.661 2°53.882 17.8195 4.557301 34.742666 1.64606
2008-07-18 13:36:17 51°18.661 2°53.882 17.8177 4.557301 34.743345 1.611236
2008-07-18 13:37:17 51°18.661 2°53.883 17.8185 4.557197 34.743815 1.611236
2008-07-18 13:38:17 51°18.663 2°53.882 17.8166 4.557197 34.744494 1.541588
2008-07-18 13:39:17 51°18.663 2°53.882 17.8143 4.557197 34.745173 1.506764
2008-07-18 13:40:17 51°18.661 2°53.883 17.8142 4.557197 34.745852 1.437116
2008-07-18 13:41:17 51°18.66 2°53.884 17.8148 4.557197 34.745852 1.437116
2008-07-18 13:42:17 51°18.657 2°53.885 17.8137 4.557094 34.745644 1.437116
2008-07-18 13:43:17 51°18.658 2°53.884 17.8163 4.557094 34.745644 1.437116
2008-07-18 13:44:17 51°18.66 2°53.885 17.8191 4.557094 34.744965 1.402292
2008-07-18 13:45:17 51°18.662 2°53.883 17.8167 4.557197 34.743815 1.367467
2008-07-18 13:46:18 51°18.662 2°53.879 17.816 4.557093 34.743607 1.367467
2008-07-18 13:47:17 51°18.665 2°53.88 17.8203 4.557197 34.743137 1.297819
2008-07-18 13:48:18 51°18.664 2°53.881 17.8218 4.557197 34.741101 1.262995
2008-07-18 13:49:17 51°18.662 2°53.883 17.8258 4.557197 34.741101 1.297819
2008-07-18 13:50:18 51°18.661 2°53.881 17.827 4.557301 34.737916 1.262995
2008-07-18 13:51:17 51°18.661 2°53.882 17.8234 4.557301 34.74063 1.262995
2008-07-18 13:52:17 51°18.662 2°53.883 17.8206 4.557301 34.741309 1.228171
2008-07-18 13:53:18 51°18.662 2°53.882 17.8278 4.557301 34.739952 1.193347
2008-07-18 13:54:18 51°18.661 2°53.882 17.8249 4.557301 34.739273 1.193347
2008-07-18 13:55:18 51°18.66 2°53.882 17.8247 4.557197 34.739743 1.193347
2008-07-18 13:56:18 51°18.66 2°53.883 17.8223 4.557301 34.739273 1.193347
2008-07-18 13:57:18 51°18.66 2°53.883 17.8226 4.557197 34.741101 1.193347
2008-07-18 13:58:18 51°18.662 2°53.882 17.8228 4.557301 34.74063 1.193347
2008-07-18 13:59:18 51°18.664 2°53.878 17.8258 4.557301 34.739952 1.158523
2008-07-18 14:00:18 51°18.666 2°53.878 17.8268 4.557301 34.738594 1.123699
2008-07-18 14:01:18 51°18.664 2°53.88 17.8267 4.557405 34.738124 1.123699
2008-07-18 14:02:18 51°18.661 2°53.881 17.8275 4.557405 34.738124 1.088875
2008-07-18 14:03:18 51°18.66 2°53.883 17.829 4.557405 34.737446 1.088875
2008-07-18 14:04:18 51°18.662 2°53.882 17.8303 4.557509 34.737654 1.088875
2008-07-18 14:05:18 51°18.662 2°53.88 17.8381 4.557509 34.736297 1.088875
2008-07-18 14:06:18 51°18.663 2°53.881 17.8291 4.557612 34.736506 1.123699
2008-07-18 14:07:18 51°18.662 2°53.882 17.8303 4.557509 34.736297 1.088875
2008-07-18 14:08:18 51°18.662 2°53.88 17.8314 4.557612 34.737184 1.088875
2008-07-18 14:09:18 51°18.663 2°53.881 17.8313 4.557612 34.736506 1.123699
2008-07-18 14:10:18 51°18.662 2°53.881 17.8331 4.557612 34.736506 1.088875
2008-07-18 14:11:18 51°18.661 2°53.883 17.833 4.557612 34.735827 1.123699
2008-07-18 14:12:18 51°18.66 2°53.883 17.8321 4.557716 34.735357 1.123699
2008-07-18 14:13:18 51°18.661 2°53.885 17.8365 4.557716 34.734679 1.123699
2008-07-18 14:14:18 51°18.662 2°53.882 17.8378 4.557716 34.734001 1.088875
2008-07-18 14:15:18 51°18.662 2°53.882 17.9887 4.558339 34.726437 1.402292
2008-07-18 14:16:18 51°18.662 2°53.883 17.9409 4.553352 34.52963 1.193347
2008-07-18 14:17:18 51°18.663 2°53.882 17.8883 4.562388 34.698035 1.193347
2008-07-18 14:18:18 51°18.662 2°53.882 17.8665 4.560623 34.714773 1.158523
2008-07-18 14:19:18 51°18.662 2°53.883 17.8562 4.559585 34.72081 1.193347
2008-07-18 14:20:18 51°18.66 2°53.883 17.8529 4.55917 34.723363 1.158523
2008-07-18 14:21:18 51°18.661 2°53.884 17.8444 4.558858 34.723414 1.193347
2008-07-18 14:22:18 51°18.661 2°53.883 17.8526 4.558754 34.724561 1.193347
2008-07-18 14:23:17 51°18.662 2°53.885 17.8482 4.558858 34.72477 1.193347
2008-07-18 14:24:18 51°18.661 2°53.878 17.8502 4.558858 34.726803 1.193347
2008-07-18 14:25:18 51°18.66 2°53.863 17.8469 4.558547 34.727532 1.158523
2008-07-18 14:26:18 51°18.658 2°53.853 17.8434 4.558651 34.727063 1.193347
2008-07-18 14:27:18 51°18.653 2°53.849 17.8456 4.558547 34.725499 1.193347
2008-07-18 14:28:17 51°18.649 2°53.846 17.8445 4.558651 34.726385 1.193347
2008-07-18 14:29:18 51°18.644 2°53.834 17.845 4.558651 34.727063 1.193347
2008-07-18 14:30:17 51°18.645 2°53.832 17.8452 4.558651 34.727063 1.193347
2008-07-18 14:31:18 51°18.644 2°53.811 17.8418 4.558651 34.727063 1.262995
2008-07-18 14:32:18 51°18.639 2°53.803 17.842 4.558547 34.727532 1.228171
2008-07-18 14:33:18 51°18.627 2°53.802 17.8395 4.558547 34.726855 1.193347
2008-07-18 14:34:18 51°18.592 2°53.795 17.8428 4.558547 34.727532 1.262995
2008-07-18 14:35:18 51°18.541 2°53.794 17.8473 4.558754 34.727272 1.402292
2008-07-18 14:36:18 51°18.476 2°53.759 18.0339 0.134728 0.786861 -1.348809
2008-07-18 14:37:18 51°18.342 2°53.671 18.1138 0.094075 0.540968 -1.418457
2008-07-18 14:38:18 51°18.179 2°53.573 18.1877 0.097266 0.560048 -1.418457
2008-07-18 14:39:18 51°18.006 2°53.488 18.2618 0.084196 0.482005 -1.383633
2008-07-18 14:40:18 51°17.829 2°53.422 18.3364 0.091708 0.526742 -1.453281
2008-07-18 14:41:18 51°17.65 2°53.367 18.4082 0.09531 0.548265 -1.418457
2008-07-18 14:42:18 51°17.471 2°53.314 18.4784 0.078021 0.445337 -1.453281
2008-07-18 14:43:18 51°17.291 2°53.258 18.5555 0.091606 0.526068 -1.453281
2008-07-18 14:44:18 51°17.111 2°53.212 18.6424 0.06845 0.38885 -1.418457
2008-07-18 14:45:18 51°16.929 2°53.194 18.7012 0.080079 0.457464 -1.453281
2008-07-18 14:46:18 51°16.743 2°53.196 18.7667 0.082755 0.473296 -1.453281
2008-07-18 14:47:18 51°16.555 2°53.217 18.8312 0.078432 0.447656 -1.453281
2008-07-18 14:48:18 51°16.367 2°53.231 18.8959 0.064951 0.368294 -1.418457
2008-07-18 14:49:18 51°16.179 2°53.275 18.9622 0.0667 0.378532 -1.418457
2008-07-18 14:50:18 51°15.998 2°53.379 19.0294 0.085122 0.487292 -1.418457
2008-07-18 14:51:18 51°15.815 2°53.48 19.0843 0.065671 0.37243 -1.418457
2008-07-18 14:52:18 51°15.633 2°53.576 19.1432 0.064642 0.366377 -1.418457
2008-07-18 14:53:18 51°15.45 2°53.685 19.2001 0.104367 0.602234 -1.418457
2008-07-18 14:54:18 51°15.267 2°53.79 19.2564 0.055792 0.314773 -1.418457
2008-07-18 14:55:18 51°15.092 2°53.927 19.3113 0.061349 0.34713 -1.418457
2008-07-18 14:56:18 51°14.925 2°54.092 19.3681 0.054248 0.305771 -1.453281
2008-07-18 14:57:18 51°14.771 2°54.287 19.4196 0.063819 0.3615 -1.453281
2008-07-18 14:58:18 51°14.617 2°54.487 19.4759 0.068244 0.387424 -1.453281
2008-07-18 14:59:18 51°14.5 2°54.75 19.5316 0.075963 0.432828 -1.418457
2008-07-18 15:00:18 51°14.388 2°55.018 19.5754 0.062481 0.353642 -1.418457
2008-07-18 15:01:18 51°14.273 2°55.233 19.6247 0.051778 0.291397 -1.453281
2008-07-18 15:02:18 51°14.178 2°55.363 19.6702 0.059085 0.333788 -1.453281
2008-07-18 15:03:18 51°14.085 2°55.442 19.7167 0.062584 0.35419 -1.453281